Time;durP1;ratioP1;P1;durP2;ratioP2;P2;SDS_P1;SDS_P2;PMS_P1;PMS_P2;Temp;Humidity;BMP_temperature;BMP_pressure;BME280_temperature;BME280_humidity;BME280_pressure;Samples;Min_cycle;Max_cycle;Signal;HPM_P1;HPM_P2
2021/09/22 00:08:22;;;;;;;11.43;6.70;;;;;;;10.61;100.00;101051.83;715256;1199;114871;-72
2021/09/22 00:23:24;;;;;;;22.08;11.68;;;;;;;10.44;100.00;101048.71;714624;1199;114960;-72
2021/09/22 00:38:27;;;;;;;21.75;10.70;;;;;;;10.25;100.00;101045.76;714292;1200;115453;-72
2021/09/22 00:53:29;;;;;;;13.73;8.45;;;;;;;10.26;100.00;101042.20;714188;1200;115735;-71
2021/09/22 01:08:33;;;;;;;16.50;10.18;;;;;;;10.44;100.00;101034.77;714172;1178;114913;-72
2021/09/22 01:23:35;;;;;;;19.15;9.38;;;;;;;10.49;100.00;101025.59;714291;1174;114621;-73
2021/09/22 01:38:37;;;;;;;16.68;10.10;;;;;;;10.50;100.00;101034.28;714296;1177;114307;-72
2021/09/22 01:53:39;;;;;;;15.73;10.00;;;;;;;10.52;100.00;101013.17;713834;1202;114919;-72
2021/09/22 02:08:43;;;;;;;17.43;10.03;;;;;;;10.34;100.00;101021.47;713809;1202;115119;-72
2021/09/22 02:23:46;;;;;;;22.35;11.80;;;;;;;10.41;100.00;101019.25;713854;1199;114967;-73
2021/09/22 02:38:48;;;;;;;17.38;10.10;;;;;;;10.18;100.00;101020.96;713845;1199;115817;-72
2021/09/22 02:53:50;;;;;;;18.77;10.80;;;;;;;10.11;100.00;101028.45;713762;1202;115669;-72
2021/09/22 03:08:52;;;;;;;22.90;12.05;;;;;;;10.20;100.00;101042.64;713936;1177;114348;-72
2021/09/22 03:23:55;;;;;;;19.47;11.10;;;;;;;10.08;100.00;101042.63;713940;1203;114301;-72
2021/09/22 03:38:57;;;;;;;23.98;12.90;;;;;;;9.98;100.00;101036.38;714006;1178;114339;-72
2021/09/22 03:53:59;;;;;;;22.20;12.50;;;;;;;10.16;100.00;101048.13;714212;1199;114485;-72
2021/09/22 04:09:02;;;;;;;32.05;18.30;;;;;;;10.25;100.00;101040.52;714062;1202;114412;-71
2021/09/22 04:24:05;;;;;;;40.17;20.63;;;;;;;10.24;100.00;101075.55;714719;1199;115052;-73
2021/09/22 04:39:09;;;;;;;18.78;11.03;;;;;;;10.21;100.00;101099.39;714248;1202;114905;-73
2021/09/22 04:54:11;;;;;;;21.15;11.43;;;;;;;10.21;100.00;101096.77;714456;1178;114982;-73
2021/09/22 05:09:13;;;;;;;22.50;12.83;;;;;;;10.36;100.00;101103.54;714157;1182;114042;-72
2021/09/22 05:24:16;;;;;;;31.77;16.37;;;;;;;10.48;100.00;101099.16;714047;1200;114395;-71
2021/09/22 05:39:19;;;;;;;25.18;15.83;;;;;;;10.57;100.00;101113.36;714308;1202;115233;-71
2021/09/22 05:54:21;;;;;;;26.83;13.80;;;;;;;10.65;100.00;101126.77;714724;1200;115695;-79
2021/09/22 06:09:24;;;;;;;24.98;13.28;;;;;;;10.85;100.00;101138.38;715591;1199;114840;-81
2021/09/22 06:24:27;;;;;;;40.65;25.03;;;;;;;11.06;100.00;101141.16;716439;1199;114552;-82
2021/09/22 06:39:30;;;;;;;24.43;14.78;;;;;;;11.37;100.00;101157.16;716408;1200;116028;-82
2021/09/22 06:54:33;;;;;;;16.13;9.70;;;;;;;11.59;100.00;101158.13;715443;1203;114811;-77
2021/09/22 07:09:36;;;;;;;13.55;8.95;;;;;;;11.86;100.00;101165.61;714844;1199;114606;-76
2021/09/22 07:24:39;;;;;;;14.90;9.15;;;;;;;12.13;100.00;101181.01;714457;1182;114226;-75
2021/09/22 07:39:42;;;;;;;14.88;9.20;;;;;;;12.49;100.00;101189.50;714818;1199;114319;-77
2021/09/22 07:54:44;;;;;;;15.23;8.33;;;;;;;13.17;100.00;101200.64;715037;1199;114936;-75
2021/09/22 08:09:46;;;;;;;10.18;6.25;;;;;;;13.39;100.00;101203.15;714644;1200;115187;-74
2021/09/22 08:24:49;;;;;;;8.35;4.95;;;;;;;13.42;100.00;101205.54;714511;1199;114846;-77
2021/09/22 08:39:52;;;;;;;7.28;3.73;;;;;;;14.14;100.00;101203.67;714581;1202;114055;-76
2021/09/22 08:54:54;;;;;;;5.83;3.03;;;;;;;14.91;100.00;101184.54;714918;1200;114404;-73
2021/09/22 09:10:05;;;;;;;3.28;2.43;;;;;;;16.28;97.01;101163.59;714790;1180;114030;-74
2021/09/22 09:25:08;;;;;;;2.03;1.50;;;;;;;16.91;91.70;101159.17;716169;1200;114637;-74
2021/09/22 09:40:15;;;;;;;3.50;2.23;;;;;;;16.44;83.70;101162.94;715036;1202;115233;-74
2021/09/22 09:55:19;;;;;;;2.85;1.70;;;;;;;16.89;83.59;101154.98;715762;1176;113882;-74
2021/09/22 10:10:21;;;;;;;4.28;2.40;;;;;;;18.13;80.57;101154.56;719888;1187;113975;-78
2021/09/22 10:25:24;;;;;;;7.48;4.33;;;;;;;17.26;76.56;101169.80;732646;1200;113999;-81
2021/09/22 10:40:38;;;;;;;5.03;2.67;;;;;;;15.90;74.46;101154.13;715477;1200;116524;-79
2021/09/22 10:55:59;;;;;;;8.23;3.68;;;;;;;16.02;76.40;101150.30;714726;1199;114792;-80
2021/09/22 11:11:01;;;;;;;5.18;3.20;;;;;;;16.14;76.05;101145.63;714399;1199;113983;-77
2021/09/22 11:26:08;;;;;;;14.77;6.10;;;;;;;15.26;76.85;101141.61;714536;1199;114799;-77
2021/09/22 11:41:13;;;;;;;11.28;4.93;;;;;;;15.32;77.59;101150.77;714555;1199;114663;-76
2021/09/22 11:56:16;;;;;;;10.65;4.28;;;;;;;15.01;79.76;101140.45;714499;1199;114710;-82
2021/09/22 12:11:20;;;;;;;11.07;7.13;;;;;;;15.04;79.77;101158.64;714340;1200;115069;-82
2021/09/22 12:26:22;;;;;;;10.25;4.78;;;;;;;14.31;81.88;101144.11;714396;1200;115362;-82
2021/09/22 12:41:27;;;;;;;16.40;10.23;;;;;;;14.42;83.47;101151.05;715164;1199;115339;-78
2021/09/22 12:56:31;;;;;;;8.67;4.00;;;;;;;14.22;85.06;101155.50;716548;1202;114811;-78
2021/09/22 13:11:39;;;;;;;12.33;6.48;;;;;;;14.33;87.14;101157.16;716691;1202;114049;-78
2021/09/22 13:26:44;;;;;;;10.13;5.45;;;;;;;14.73;87.85;101140.38;714706;1199;114597;-78
2021/09/22 13:41:46;;;;;;;6.20;4.10;;;;;;;15.09;88.01;101140.55;715011;1178;113986;-77
2021/09/22 13:56:49;;;;;;;5.07;3.63;;;;;;;15.08;87.93;101128.31;714510;1200;114070;-77
2021/09/22 14:11:52;;;;;;;10.85;6.13;;;;;;;14.68;88.47;101116.20;714382;1177;113986;-78
2021/09/22 14:26:54;;;;;;;10.98;5.15;;;;;;;14.60;89.57;101097.56;714237;1189;114222;-81
2021/09/22 14:41:59;;;;;;;129.33;72.45;;;;;;;14.43;89.98;101113.13;714366;1177;114597;-80
2021/09/22 14:57:03;;;;;;;21.95;13.10;;;;;;;14.19;91.77;101110.93;714183;1200;114776;-81
2021/09/22 15:12:05;;;;;;;95.53;42.93;;;;;;;14.05;93.06;101104.24;714292;1199;114460;-80
2021/09/22 15:27:25;;;;;;;155.58;75.45;;;;;;;13.87;94.36;101093.56;714222;1199;114886;-82
2021/09/22 15:42:29;;;;;;;112.28;56.73;;;;;;;13.52;95.73;101086.95;714831;1203;114519;-81
2021/09/22 15:57:32;;;;;;;38.10;17.93;;;;;;;13.26;97.51;101073.39;714419;1200;116037;-77
2021/09/22 16:12:35;;;;;;;37.23;22.48;;;;;;;13.04;99.99;101072.63;714382;1200;114800;-77
2021/09/22 16:27:37;;;;;;;44.20;22.83;;;;;;;13.12;100.00;101058.80;714628;1199;113907;-81
2021/09/22 16:42:39;;;;;;;50.15;24.05;;;;;;;13.10;100.00;101040.47;714523;1199;115923;-78
2021/09/22 16:57:43;;;;;;;51.75;25.83;;;;;;;12.93;100.00;101027.94;714631;1199;115279;-76
2021/09/22 17:12:46;;;;;;;145.00;49.93;;;;;;;12.96;100.00;101035.59;714520;1187;115146;-74
2021/09/22 17:27:49;;;;;;;258.80;101.20;;;;;;;12.44;100.00;101033.78;714834;1174;114565;-79
2021/09/22 17:42:52;;;;;;;49.15;28.80;;;;;;;12.64;100.00;101020.73;714943;1177;114849;-78
2021/09/22 17:57:55;;;;;;;58.58;29.55;;;;;;;12.38;100.00;101028.20;715182;1174;115380;-76
2021/09/22 18:12:58;;;;;;;50.70;28.37;;;;;;;12.29;100.00;101035.09;715172;1200;113996;-77
2021/09/22 18:28:01;;;;;;;43.10;23.83;;;;;;;12.20;100.00;101006.92;714860;1199;115452;-72
2021/09/22 18:43:04;;;;;;;49.07;24.80;;;;;;;12.20;100.00;101010.38;715001;1182;114483;-74
2021/09/22 18:58:07;;;;;;;58.97;25.23;;;;;;;12.04;100.00;100988.95;715319;1200;116229;-77
2021/09/22 19:13:12;;;;;;;25.53;12.90;;;;;;;12.03;100.00;100971.50;714699;1176;114369;-74
2021/09/22 19:28:15;;;;;;;25.43;14.35;;;;;;;11.94;100.00;100944.14;716724;1177;114351;-73
2021/09/22 19:43:17;;;;;;;24.28;11.50;;;;;;;11.94;100.00;100936.25;716251;1200;114646;-73
2021/09/22 19:58:20;;;;;;;21.25;11.38;;;;;;;11.96;100.00;100934.38;715101;1202;115463;-73
2021/09/22 20:13:25;;;;;;;19.58;10.10;;;;;;;11.91;100.00;100937.34;715178;1199;114290;-73
2021/09/22 20:28:28;;;;;;;23.95;13.10;;;;;;;11.80;100.00;100921.64;714801;1200;115455;-73
2021/09/22 20:43:33;;;;;;;20.23;11.48;;;;;;;11.57;100.00;100919.10;714737;1174;114422;-72
2021/09/22 20:58:35;;;;;;;20.95;11.63;;;;;;;11.48;100.00;100909.34;714265;1200;115965;-73
2021/09/22 21:13:38;;;;;;;33.45;17.38;;;;;;;11.32;100.00;100904.52;714365;1199;115162;-73
2021/09/22 21:28:41;;;;;;;15.70;9.03;;;;;;;11.13;100.00;100915.69;714160;1203;115959;-73
2021/09/22 21:43:43;;;;;;;14.58;8.85;;;;;;;11.01;100.00;100903.53;714036;1202;115270;-74
2021/09/22 21:58:49;;;;;;;19.40;9.87;;;;;;;10.94;100.00;100890.91;714099;1203;115539;-71
2021/09/22 22:13:56;;;;;;;26.18;11.75;;;;;;;10.88;100.00;100887.95;714281;1203;114588;-72
2021/09/22 22:29:00;;;;;;;20.20;11.50;;;;;;;10.92;100.00;100881.49;714328;1177;114303;-73
2021/09/22 22:44:03;;;;;;;27.78;13.08;;;;;;;10.76;100.00;100858.27;714188;1199;114728;-73
2021/09/22 22:59:06;;;;;;;20.13;10.80;;;;;;;10.77;100.00;100837.14;713970;1199;114967;-73
2021/09/22 23:14:08;;;;;;;18.23;10.70;;;;;;;10.80;100.00;100821.14;713807;1199;115117;-72
2021/09/22 23:29:11;;;;;;;24.85;11.93;;;;;;;10.75;100.00;100802.30;714016;1203;114748;-73
2021/09/22 23:44:13;;;;;;;20.63;10.40;;;;;;;10.78;100.00;100767.96;714242;1181;115991;-72
2021/09/22 23:59:16;;;;;;;21.70;11.05;;;;;;;10.76;100.00;100745.42;714016;1200;114395;-73
